YSWG/WGA METAR and TAF weather

Enter ICAO airport designator
Station Type Date Time Source
YSWG METAR 2020/04/05 22:00 UTC NOAA

YSWG 052200Z AUTO 28007KT 9999 // OVC010 14/13 Q1019


Station Type Date Time Source
YSWG Decoded METAR 2020/04/05 22:00 UTC NOAA

Wagga Airport, Australia (YSWG) 35-09S 147-27E 213M
Apr 05, 2020 - 06:00 PM EDT / 2020.04.05 2200 UTC
Wind: from the W (280 degrees) at 8 MPH (7 KT):0
Visibility: greater than 7 mile(s):0
Sky conditions: overcast
Temperature: 57 F (14 C)
Dew Point: 55 F (13 C)
Relative Humidity: 93%
Pressure (altimeter): 30.09 in. Hg (1019 hPa)
ob: YSWG 052200Z AUTO 28007KT 9999 // OVC010 14/13 Q1019
cycle: 22

Station Type Date Time Source
YSWG TAF 2018/05/25 18:03 UTC NOAA

TAF YSWG 251649Z 2518/2608 07008KT CAVOK

Example: see airport list